Time;durP1;ratioP1;P1;durP2;ratioP2;P2;SDS_P1;SDS_P2;PMS_P1;PMS_P2;Temp;Humidity;BMP_temperature;BMP_pressure;BME280_temperature;BME280_humidity;BME280_pressure;Samples;Min_cycle;Max_cycle;Signal;HPM_P1;HPM_P2
2021/11/02 00:00:54;;;;;;;0.88;0.88;;;8.30;99.90;;;;;;5035314;28;20232;-87
2021/11/02 00:03:20;;;;;;;0.77;0.77;;;8.20;99.90;;;;;;5035321;28;20201;-87
2021/11/02 00:05:45;;;;;;;0.60;0.60;;;8.10;99.90;;;;;;5036625;28;20258;-86
2021/11/02 00:08:11;;;;;;;0.60;0.60;;;8.10;99.90;;;;;;5054638;28;20656;-87
2021/11/02 00:10:37;;;;;;;0.70;0.70;;;8.10;99.90;;;;;;5053127;28;20211;-87
2021/11/02 00:13:03;;;;;;;0.65;0.65;;;8.10;99.90;;;;;;5053117;28;20212;-86
2021/11/02 00:15:32;;;;;;;0.70;0.70;;;8.00;99.90;;;;;;5033492;28;20205;-86
2021/11/02 00:18:04;;;;;;;0.63;0.63;;;7.90;99.90;;;;;;5035404;28;20279;-88
2021/11/02 00:20:31;;;;;;;0.60;0.60;;;7.80;99.90;;;;;;5034905;28;20201;-86
2021/11/02 00:22:58;;;;;;;0.60;0.60;;;7.70;99.90;;;;;;5033805;28;20251;-89
2021/11/02 00:25:27;;;;;;;0.70;0.70;;;7.60;99.90;;;;;;5052980;28;20194;-87
2021/11/02 00:27:54;;;;;;;1.52;1.42;;;7.50;99.90;;;;;;5035086;28;20205;-88
2021/11/02 00:30:22;;;;;;;0.70;0.70;;;7.50;99.90;;;;;;5034371;28;20696;-86
2021/11/02 00:32:52;;;;;;;1.40;1.05;;;7.50;99.90;;;;;;5036376;28;20221;-88
2021/11/02 00:35:19;;;;;;;0.57;0.57;;;7.60;99.90;;;;;;5034830;28;20205;-86
2021/11/02 00:37:45;;;;;;;0.80;0.80;;;7.60;99.90;;;;;;5034810;28;20202;-87
2021/11/02 00:40:13;;;;;;;0.60;0.60;;;7.70;99.90;;;;;;5052871;28;20284;-88
2021/11/02 00:42:42;;;;;;;0.55;0.55;;;7.80;99.90;;;;;;5034769;28;20209;-88
2021/11/02 00:45:11;;;;;;;1.05;1.02;;;7.90;99.90;;;;;;5035007;28;20204;-87
2021/11/02 00:47:37;;;;;;;0.60;0.60;;;8.00;99.90;;;;;;5034716;28;20236;-87
2021/11/02 00:50:12;;;;;;;3.30;1.50;;;8.00;99.90;;;;;;5053505;28;20229;-87
2021/11/02 00:52:41;;;;;;;43.53;1.85;;;8.00;99.90;;;;;;5051993;28;20254;-87
2021/11/02 00:55:07;;;;;;;0.90;0.90;;;8.00;99.90;;;;;;5033268;28;20637;-86
2021/11/02 00:57:35;;;;;;;0.70;0.70;;;8.00;99.90;;;;;;5033645;28;20208;-87
2021/11/02 01:00:02;;;;;;;0.70;0.70;;;8.00;99.90;;;;;;5034062;28;20205;-87
2021/11/02 01:02:28;;;;;;;0.70;0.70;;;8.00;99.90;;;;;;5052100;28;20206;-88
2021/11/02 01:04:54;;;;;;;0.88;0.88;;;8.00;99.90;;;;;;5033410;28;20212;-88
2021/11/02 01:07:20;;;;;;;0.80;0.80;;;8.10;99.90;;;;;;5034279;28;20201;-87
2021/11/02 01:09:45;;;;;;;0.60;0.60;;;8.10;99.90;;;;;;5034210;28;20615;-88
2021/11/02 01:12:12;;;;;;;0.60;0.60;;;8.10;99.90;;;;;;5034392;28;20205;-87
2021/11/02 01:14:39;;;;;;;0.90;0.90;;;8.10;99.90;;;;;;5034069;28;20209;-88
2021/11/02 01:17:05;;;;;;;0.80;0.80;;;8.10;99.90;;;;;;5035152;28;20221;-87
2021/11/02 01:19:31;;;;;;;1.20;1.10;;;8.10;99.90;;;;;;5035258;28;20210;-88
2021/11/02 01:21:57;;;;;;;0.70;0.70;;;8.10;99.90;;;;;;5034262;28;20201;-88
2021/11/02 01:24:23;;;;;;;0.90;0.90;;;8.10;99.90;;;;;;5034128;28;20707;-87
2021/11/02 01:26:49;;;;;;;1.05;1.02;;;8.10;99.90;;;;;;5034005;28;20224;-88
2021/11/02 01:29:16;;;;;;;1.65;1.45;;;8.10;99.90;;;;;;5033979;28;20247;-88
2021/11/02 01:31:46;;;;;;;1.98;1.75;;;8.10;99.90;;;;;;5033216;28;20225;-88
2021/11/02 01:34:12;;;;;;;3.83;1.23;;;8.10;99.90;;;;;;5032697;28;20734;-87
2021/11/02 01:36:39;;;;;;;0.88;0.88;;;8.10;99.90;;;;;;5050063;28;20531;-88
2021/11/02 01:39:07;;;;;;;0.70;0.70;;;8.10;99.90;;;;;;5034411;28;20194;-87
2021/11/02 01:41:34;;;;;;;0.70;0.70;;;8.10;99.90;;;;;;5032010;28;20284;-88
2021/11/02 01:44:00;;;;;;;0.80;0.80;;;8.10;99.90;;;;;;5051953;28;20201;-87
2021/11/02 01:46:43;;;;;;;0.75;0.75;;;8.10;99.90;;;;;;5052790;28;20198;-87
2021/11/02 01:49:09;;;;;;;0.75;0.75;;;8.10;99.90;;;;;;5035177;28;20225;-87
2021/11/02 01:51:36;;;;;;;10.90;1.75;;;8.10;99.90;;;;;;5032857;28;20229;-86
2021/11/02 01:54:04;;;;;;;0.90;0.90;;;8.10;99.90;;;;;;5034913;28;20194;-87
2021/11/02 01:56:30;;;;;;;1.40;1.33;;;8.10;99.90;;;;;;5033728;28;20648;-88
2021/11/02 01:58:56;;;;;;;2.60;1.00;;;8.20;99.90;;;;;;5034017;28;20330;-88
2021/11/02 02:01:40;;;;;;;0.75;0.75;;;8.10;99.90;;;;;;5033942;28;20251;-87
2021/11/02 02:04:15;;;;;;;0.90;0.90;;;8.20;99.90;;;;;;5053097;28;20205;-87
2021/11/02 02:06:57;;;;;;;0.60;0.60;;;8.20;99.90;;;;;;5034457;28;20279;-87
2021/11/02 02:09:53;;;;;;;0.60;0.60;;;8.20;99.90;;;;;;5033407;28;20209;-88
2021/11/02 02:12:38;;;;;;;0.82;0.82;;;8.20;99.90;;;;;;4976713;28;20545;-86
2021/11/02 02:15:24;;;;;;;0.70;0.70;;;8.20;99.90;;;;;;5034497;28;20205;-87
2021/11/02 02:17:59;;;;;;;0.70;0.70;;;8.20;99.90;;;;;;5056680;28;20217;-87
2021/11/02 02:21:01;;;;;;;0.70;0.70;;;8.20;99.90;;;;;;5056495;28;20197;-88
2021/11/02 02:23:48;;;;;;;0.60;0.60;;;8.20;99.90;;;;;;5047778;28;20200;-86
2021/11/02 02:26:52;;;;;;;0.70;0.70;;;8.20;99.90;;;;;;5043712;28;20268;-87
2021/11/02 02:29:21;;;;;;;0.70;0.70;;;8.30;99.90;;;;;;5038433;28;20216;-87
2021/11/02 02:31:47;;;;;;;0.63;0.63;;;8.30;99.90;;;;;;5055599;28;20248;-88
2021/11/02 02:34:15;;;;;;;0.60;0.60;;;8.30;99.90;;;;;;5051182;28;20308;-88
2021/11/02 02:36:44;;;;;;;0.70;0.70;;;8.20;99.90;;;;;;5024754;28;20216;-87
2021/11/02 02:39:12;;;;;;;0.73;0.73;;;8.20;99.90;;;;;;5040313;28;20657;-88
2021/11/02 02:41:40;;;;;;;0.75;0.68;;;8.20;99.90;;;;;;5018931;28;20253;-88
2021/11/02 02:44:08;;;;;;;0.95;0.95;;;8.20;99.90;;;;;;5048731;28;20228;-88
2021/11/02 02:46:36;;;;;;;0.82;0.82;;;8.20;99.90;;;;;;5034521;28;20209;-89
2021/11/02 02:49:03;;;;;;;2.90;1.17;;;8.20;99.90;;;;;;5025480;28;20589;-86
2021/11/02 02:51:30;;;;;;;0.90;0.90;;;8.20;99.90;;;;;;5024033;28;20198;-87
2021/11/02 02:53:57;;;;;;;0.65;0.65;;;8.20;99.90;;;;;;5020573;28;20209;-88
2021/11/02 02:56:26;;;;;;;0.80;0.80;;;8.20;99.90;;;;;;5024814;28;20225;-88
2021/11/02 02:58:55;;;;;;;5.88;1.83;;;8.10;99.90;;;;;;5021712;28;20692;-87
2021/11/02 03:01:22;;;;;;;1.40;1.15;;;8.20;99.90;;;;;;5027732;28;20561;-87
2021/11/02 03:03:57;;;;;;;1.20;1.10;;;8.20;99.90;;;;;;5033608;28;20213;-88
2021/11/02 03:06:26;;;;;;;0.63;0.63;;;8.20;99.90;;;;;;5028057;28;20208;-88
2021/11/02 03:08:53;;;;;;;1.48;1.40;;;8.20;99.90;;;;;;5028637;28;20208;-88
2021/11/02 03:11:20;;;;;;;0.90;0.90;;;8.20;99.90;;;;;;5027383;28;20248;-86
2021/11/02 03:13:50;;;;;;;1.23;1.02;;;8.20;99.90;;;;;;5021608;28;20220;-87
2021/11/02 03:16:24;;;;;;;1.17;1.17;;;8.20;99.90;;;;;;5033543;28;20208;-90
2021/11/02 03:19:25;;;;;;;0.60;0.60;;;8.20;99.90;;;;;;5029492;28;20201;-89
2021/11/02 03:54:49;;;;;;;0.70;0.70;;;8.20;99.90;;;;;;5038219;28;20198;-87
2021/11/02 04:36:35;;;;;;;1.38;1.27;;;8.20;99.90;;;;;;5047843;28;20262;-88
2021/11/02 05:47:32;;;;;;;40.40;3.53;;;8.10;99.90;;;;;;5051335;28;20698;-86
2021/11/02 05:56:05;;;;;;;0.60;0.60;;;8.10;99.90;;;;;;5051803;28;20227;-86
2021/11/02 05:58:22;;;;;;;0.90;0.90;;;8.10;99.90;;;;;;5043558;28;20267;-87
2021/11/02 06:06:02;;;;;;;0.80;0.80;;;8.10;99.90;;;;;;5051556;28;20212;-85
2021/11/02 06:28:54;;;;;;;0.80;0.80;;;8.10;99.90;;;;;;5051310;28;20212;-87
2021/11/02 06:31:35;;;;;;;1.20;1.10;;;8.10;99.90;;;;;;5050084;28;20229;-86
2021/11/02 06:37:33;;;;;;;0.80;0.80;;;8.10;99.90;;;;;;4939149;28;20670;-87
2021/11/02 07:19:13;;;;;;;0.80;0.80;;;8.20;99.90;;;;;;5034426;28;20210;-87
2021/11/02 07:24:34;;;;;;;0.73;0.73;;;8.30;99.90;;;;;;5034736;28;20202;-87
2021/11/02 07:30:14;;;;;;;0.60;0.60;;;8.30;99.90;;;;;;5033515;28;20633;-86
2021/11/02 08:48:00;;;;;;;0.80;0.80;;;8.90;99.90;;;;;;5034388;28;20213;-87
2021/11/02 08:50:29;;;;;;;0.75;0.75;;;8.90;99.90;;;;;;5032355;28;20217;-87
2021/11/02 08:52:56;;;;;;;0.60;0.60;;;8.90;99.90;;;;;;5014756;28;20205;-87
2021/11/02 08:55:23;;;;;;;1.60;1.40;;;8.90;99.90;;;;;;5014404;28;20288;-86
2021/11/02 08:57:50;;;;;;;0.70;0.70;;;8.90;99.90;;;;;;5014482;28;20202;-85
2021/11/02 09:00:17;;;;;;;6.18;2.35;;;8.80;99.90;;;;;;5014546;28;20202;-85
2021/11/02 09:02:48;;;;;;;0.88;0.88;;;8.80;99.90;;;;;;5014101;28;20206;-85
2021/11/02 09:05:20;;;;;;;4.65;2.35;;;8.90;99.90;;;;;;5012970;28;20238;-87
2021/11/02 09:07:46;;;;;;;0.90;0.90;;;8.90;99.90;;;;;;5014480;28;20210;-86
2021/11/02 09:10:17;;;;;;;1.13;1.13;;;8.90;99.90;;;;;;5014502;28;20627;-86
2021/11/02 09:12:50;;;;;;;74.97;1.85;;;8.90;99.90;;;;;;5032018;28;20202;-86
2021/11/02 09:15:18;;;;;;;0.70;0.70;;;8.90;99.90;;;;;;5015512;28;20255;-87
2021/11/02 09:17:47;;;;;;;1.65;1.27;;;9.00;99.90;;;;;;5032020;28;20284;-86
2021/11/02 09:20:15;;;;;;;2.22;1.58;;;9.00;99.90;;;;;;5014058;28;20690;-86
2021/11/02 09:22:41;;;;;;;0.85;0.85;;;9.00;99.90;;;;;;5015113;28;20206;-85
2021/11/02 09:25:08;;;;;;;0.82;0.82;;;9.00;99.90;;;;;;5032537;28;20653;-86
2021/11/02 09:27:36;;;;;;;0.60;0.60;;;9.00;99.90;;;;;;5015345;28;20201;-87
2021/11/02 09:30:04;;;;;;;0.50;0.50;;;9.00;99.90;;;;;;5014300;28;20221;-86
2021/11/02 09:32:30;;;;;;;0.80;0.80;;;9.00;99.90;;;;;;5024111;28;20236;-86
2021/11/02 09:34:55;;;;;;;0.70;0.70;;;9.00;99.90;;;;;;5034829;28;20209;-86
2021/11/02 09:37:33;;;;;;;1.38;1.23;;;9.00;99.90;;;;;;5051376;28;20209;-86
2021/11/02 09:40:10;;;;;;;0.85;0.85;;;9.10;99.90;;;;;;5024497;28;20738;-87
2021/11/02 09:43:01;;;;;;;0.70;0.70;;;9.10;99.90;;;;;;5017850;28;20685;-87
2021/11/02 09:45:46;;;;;;;2.67;1.40;;;9.10;99.90;;;;;;5034894;28;20209;-87
2021/11/02 09:48:43;;;;;;;4.13;1.98;;;9.00;99.90;;;;;;5051532;28;20306;-86
2021/11/02 09:51:39;;;;;;;0.90;0.90;;;9.10;99.90;;;;;;5000390;28;20244;-86
2021/11/02 09:54:35;;;;;;;1.20;1.10;;;9.00;99.90;;;;;;5034779;28;20205;-87
2021/11/02 09:57:06;;;;;;;0.50;0.50;;;9.00;99.90;;;;;;5009976;28;20376;-87
2021/11/02 09:59:58;;;;;;;0.55;0.55;;;9.00;99.90;;;;;;5033206;28;20220;-87
2021/11/02 10:02:29;;;;;;;0.60;0.60;;;9.00;99.90;;;;;;5050972;28;20575;-86
2021/11/02 10:05:07;;;;;;;1.35;1.25;;;9.00;99.90;;;;;;5051351;28;20204;-86
2021/11/02 10:08:02;;;;;;;0.70;0.70;;;9.00;99.90;;;;;;5032381;28;20197;-87
2021/11/02 10:10:56;;;;;;;0.93;0.93;;;9.00;99.90;;;;;;5033321;28;20197;-86
2021/11/02 10:13:44;;;;;;;0.70;0.70;;;9.00;99.90;;;;;;5036080;28;20647;-86
2021/11/02 10:16:36;;;;;;;0.70;0.70;;;9.00;99.90;;;;;;5049341;28;20308;-86
2021/11/02 10:19:21;;;;;;;0.93;0.93;;;9.10;99.90;;;;;;5033344;28;20280;-87
2021/11/02 10:22:17;;;;;;;1.15;1.13;;;9.10;99.90;;;;;;5033132;28;20312;-87
2021/11/02 10:25:13;;;;;;;0.93;0.93;;;9.10;99.90;;;;;;5033190;28;20201;-86
2021/11/02 10:28:01;;;;;;;0.52;0.52;;;9.30;99.90;;;;;;5053389;28;20209;-86
2021/11/02 10:30:53;;;;;;;1.33;1.23;;;9.30;99.90;;;;;;5052346;28;20233;-87
2021/11/02 10:33:20;;;;;;;0.80;0.80;;;9.30;99.90;;;;;;5033116;28;20304;-86
2021/11/02 10:36:17;;;;;;;0.75;0.75;;;9.40;99.90;;;;;;5031960;28;20205;-86
2021/11/02 10:39:05;;;;;;;1.45;1.35;;;9.40;99.90;;;;;;5054246;28;20598;-86
2021/11/02 10:41:43;;;;;;;0.88;0.88;;;9.50;99.90;;;;;;5036481;28;20197;-86
2021/11/02 10:44:29;;;;;;;1.40;0.80;;;9.50;99.90;;;;;;5036757;28;20279;-87
2021/11/02 10:47:09;;;;;;;0.68;0.68;;;9.50;99.90;;;;;;5037048;28;20245;-87
2021/11/02 10:50:02;;;;;;;0.88;0.88;;;9.50;99.90;;;;;;5036908;28;20293;-87
2021/11/02 10:52:31;;;;;;;1.02;0.98;;;9.50;99.90;;;;;;5036668;28;20205;-87
2021/11/02 10:55:12;;;;;;;1.63;1.25;;;9.50;99.90;;;;;;5036870;28;20308;-86
2021/11/02 10:57:59;;;;;;;2.95;1.73;;;9.50;99.90;;;;;;5038007;28;20205;-87
2021/11/02 11:00:26;;;;;;;0.80;0.80;;;9.50;99.90;;;;;;5036478;28;20243;-87
2021/11/02 11:02:55;;;;;;;0.70;0.70;;;9.50;99.90;;;;;;5036334;28;20312;-88
2021/11/02 11:05:27;;;;;;;5.07;2.10;;;9.60;99.90;;;;;;5036285;28;20233;-87
2021/11/02 11:07:54;;;;;;;1.65;1.55;;;9.50;99.90;;;;;;5036337;28;20206;-87
2021/11/02 11:10:23;;;;;;;0.90;0.90;;;9.50;99.90;;;;;;5032222;28;20197;-86
2021/11/02 11:12:51;;;;;;;4.03;1.58;;;9.60;99.90;;;;;;5022553;28;20229;-86
2021/11/02 11:15:18;;;;;;;0.70;0.70;;;9.60;99.90;;;;;;5030830;28;20193;-86
2021/11/02 11:18:05;;;;;;;2.60;1.25;;;9.50;99.90;;;;;;5034122;28;20687;-87
2021/11/02 11:20:35;;;;;;;0.75;0.75;;;9.50;99.90;;;;;;5035764;28;20246;-86
2021/11/02 11:23:09;;;;;;;3.40;1.35;;;9.50;99.90;;;;;;5027805;28;20213;-87
2021/11/02 11:25:45;;;;;;;1.75;1.35;;;9.60;99.90;;;;;;5036122;28;20263;-87
2021/11/02 11:28:15;;;;;;;0.65;0.65;;;9.60;99.90;;;;;;5035963;28;20197;-88
2021/11/02 11:30:43;;;;;;;0.80;0.80;;;9.60;99.90;;;;;;5051671;28;20575;-86
2021/11/02 11:33:18;;;;;;;0.85;0.85;;;9.50;99.90;;;;;;5035767;28;20228;-87
2021/11/02 11:35:45;;;;;;;0.60;0.60;;;9.50;99.90;;;;;;5036514;28;20213;-87
2021/11/02 11:38:14;;;;;;;0.70;0.70;;;9.40;99.90;;;;;;5038113;28;20568;-87
2021/11/02 11:40:42;;;;;;;0.60;0.60;;;9.40;99.90;;;;;;5035339;28;20205;-86
2021/11/02 11:43:09;;;;;;;0.65;0.65;;;9.40;99.90;;;;;;5036748;28;20668;-86
2021/11/02 11:45:39;;;;;;;0.90;0.77;;;9.50;99.90;;;;;;5054724;28;20708;-87
2021/11/02 11:48:24;;;;;;;0.65;0.65;;;9.50;99.90;;;;;;5025640;28;20208;-87
2021/11/02 11:50:50;;;;;;;4.22;1.15;;;9.50;99.90;;;;;;5037909;28;20280;-87
2021/11/02 11:53:18;;;;;;;0.70;0.70;;;9.50;99.90;;;;;;5035676;28;20215;-87
2021/11/02 11:55:49;;;;;;;1.00;1.00;;;9.40;99.90;;;;;;5053400;28;20288;-86
2021/11/02 11:58:20;;;;;;;0.70;0.70;;;9.40;99.90;;;;;;5037156;28;20671;-88
2021/11/02 12:01:10;;;;;;;1.27;1.17;;;9.40;99.90;;;;;;5019758;28;20232;-86
2021/11/02 12:03:55;;;;;;;0.70;0.70;;;9.50;99.90;;;;;;5036374;28;20235;-86
2021/11/02 12:06:50;;;;;;;0.70;0.70;;;9.50;99.90;;;;;;5036325;28;20205;-86
2021/11/02 12:09:21;;;;;;;0.80;0.80;;;9.50;99.90;;;;;;5040090;28;20285;-86
2021/11/02 12:11:49;;;;;;;1.70;1.60;;;9.60;99.90;;;;;;5036639;28;20229;-86
2021/11/02 12:14:25;;;;;;;1.38;1.27;;;9.50;99.90;;;;;;5036672;28;20308;-85
2021/11/02 12:16:57;;;;;;;0.43;0.43;;;9.60;99.90;;;;;;5034969;28;20208;-87
2021/11/02 12:19:44;;;;;;;3.42;1.13;;;9.60;99.90;;;;;;5035640;28;20745;-86
2021/11/02 12:22:18;;;;;;;0.30;0.30;;;9.50;99.90;;;;;;5034530;28;20728;-87
2021/11/02 12:24:44;;;;;;;0.95;0.77;;;9.50;99.90;;;;;;5035296;28;20288;-85
2021/11/02 12:27:24;;;;;;;0.65;0.65;;;9.60;99.90;;;;;;5035771;28;20212;-88
2021/11/02 12:29:50;;;;;;;0.98;0.40;;;9.60;99.90;;;;;;5052990;28;20209;-87
2021/11/02 12:32:21;;;;;;;0.35;0.35;;;9.60;99.90;;;;;;5052780;28;20227;-87
2021/11/02 12:34:50;;;;;;;9.38;2.35;;;9.60;99.90;;;;;;5037407;28;20216;-87
2021/11/02 12:37:17;;;;;;;0.30;0.30;;;9.60;99.90;;;;;;5034883;28;20205;-87
2021/11/02 12:39:44;;;;;;;0.75;0.75;;;9.60;99.90;;;;;;5035240;28;20236;-87
2021/11/02 12:42:11;;;;;;;0.47;0.47;;;9.60;99.90;;;;;;5035098;28;20691;-87
2021/11/02 12:44:38;;;;;;;0.20;0.20;;;9.60;99.90;;;;;;5036191;28;20259;-87
2021/11/02 12:47:25;;;;;;;0.55;0.45;;;9.50;99.90;;;;;;5035036;28;20704;-88
2021/11/02 12:49:57;;;;;;;0.60;0.60;;;9.50;99.90;;;;;;5035153;28;20209;-87
2021/11/02 12:52:26;;;;;;;0.20;0.20;;;9.50;99.90;;;;;;5035713;28;20232;-87
2021/11/02 12:55:01;;;;;;;0.30;0.30;;;9.50;99.90;;;;;;5034773;28;20653;-87
2021/11/02 12:57:38;;;;;;;0.40;0.40;;;9.50;99.90;;;;;;5035662;28;20684;-86
2021/11/02 13:00:11;;;;;;;0.50;0.50;;;9.50;99.90;;;;;;5034332;28;20193;-86
2021/11/02 13:02:43;;;;;;;0.20;0.20;;;9.50;99.90;;;;;;5034253;28;20249;-87
2021/11/02 13:05:23;;;;;;;2.47;1.20;;;9.50;99.90;;;;;;5034592;28;20201;-86
2021/11/02 13:08:10;;;;;;;0.20;0.20;;;9.50;99.90;;;;;;5052508;28;20197;-86
2021/11/02 13:10:37;;;;;;;0.40;0.40;;;9.60;99.90;;;;;;5034161;28;20201;-86
2021/11/02 13:13:15;;;;;;;1.23;0.60;;;9.50;99.90;;;;;;5053477;28;20186;-86
2021/11/02 13:15:54;;;;;;;0.30;0.30;;;9.50;99.90;;;;;;5033674;28;20299;-86
2021/11/02 13:18:39;;;;;;;0.88;0.70;;;9.50;99.90;;;;;;5033698;28;20761;-86
2021/11/02 13:21:30;;;;;;;0.55;0.55;;;9.50;99.90;;;;;;5033941;28;20259;-86
2021/11/02 13:24:00;;;;;;;1.63;1.10;;;9.50;99.90;;;;;;5034022;28;20678;-86
2021/11/02 13:26:27;;;;;;;0.40;0.40;;;9.60;99.90;;;;;;5033730;28;20268;-86
2021/11/02 13:29:18;;;;;;;0.30;0.30;;;9.50;99.90;;;;;;5033941;28;20204;-86
2021/11/02 13:31:46;;;;;;;2.13;1.17;;;9.50;99.90;;;;;;5033762;28;20233;-85
2021/11/02 13:34:13;;;;;;;0.65;0.57;;;9.40;99.90;;;;;;5033810;28;20205;-86
2021/11/02 13:36:40;;;;;;;0.40;0.40;;;9.50;99.90;;;;;;5034914;28;20750;-86
2021/11/02 13:39:07;;;;;;;0.40;0.38;;;9.40;99.90;;;;;;5033804;28;20546;-87
2021/11/02 13:41:48;;;;;;;1.85;1.10;;;9.40;99.90;;;;;;5051121;28;20202;-86
2021/11/02 13:44:15;;;;;;;0.70;0.70;;;9.40;99.90;;;;;;5034114;28;20557;-88
2021/11/02 13:46:42;;;;;;;0.32;0.32;;;9.40;99.90;;;;;;5033787;28;20201;-86
2021/11/02 13:49:10;;;;;;;0.30;0.30;;;9.30;99.90;;;;;;5033685;28;20205;-86
2021/11/02 13:51:37;;;;;;;0.52;0.52;;;9.30;99.90;;;;;;5034629;28;20219;-86
2021/11/02 13:54:05;;;;;;;0.30;0.30;;;9.20;99.90;;;;;;5033569;28;20715;-86
2021/11/02 13:56:44;;;;;;;0.75;0.65;;;9.20;99.90;;;;;;5033281;28;20201;-86
2021/11/02 13:59:11;;;;;;;0.95;0.80;;;9.20;99.90;;;;;;5033564;28;20711;-86
2021/11/02 14:01:44;;;;;;;0.55;0.55;;;9.10;99.90;;;;;;5032879;28;20545;-86
2021/11/02 14:04:19;;;;;;;0.30;0.30;;;9.10;99.90;;;;;;5033973;28;20193;-87
2021/11/02 14:06:50;;;;;;;0.43;0.43;;;9.10;99.90;;;;;;5051403;28;20208;-86
2021/11/02 14:09:25;;;;;;;0.30;0.30;;;9.10;99.90;;;;;;5033390;28;20572;-87
2021/11/02 14:11:50;;;;;;;0.30;0.30;;;9.10;99.90;;;;;;5032817;28;20208;-86
2021/11/02 14:14:33;;;;;;;0.30;0.30;;;9.10;99.90;;;;;;5033096;28;20201;-87
2021/11/02 14:17:18;;;;;;;1.30;0.85;;;9.00;99.90;;;;;;5034501;28;20297;-86
2021/11/02 14:19:45;;;;;;;0.30;0.30;;;9.00;99.90;;;;;;5033217;28;20201;-86
2021/11/02 14:22:13;;;;;;;0.30;0.30;;;8.90;99.90;;;;;;5050644;28;20190;-86
2021/11/02 14:24:44;;;;;;;0.30;0.30;;;8.90;99.90;;;;;;5033245;28;20221;-86
2021/11/02 14:27:20;;;;;;;0.20;0.20;;;8.90;99.90;;;;;;5034238;28;20208;-87
2021/11/02 14:29:56;;;;;;;0.30;0.30;;;8.90;99.90;;;;;;5034461;28;20256;-87
2021/11/02 14:32:37;;;;;;;0.43;0.43;;;8.90;99.90;;;;;;5050659;28;20244;-87
2021/11/02 14:35:33;;;;;;;1.70;0.52;;;9.00;99.90;;;;;;5032833;28;20237;-87
2021/11/02 14:38:03;;;;;;;0.38;0.35;;;8.90;99.90;;;;;;5033310;28;20239;-87
2021/11/02 14:40:33;;;;;;;2.55;1.10;;;8.90;99.90;;;;;;5032629;28;20209;-86
2021/11/02 14:43:22;;;;;;;1.65;1.38;;;8.90;99.90;;;;;;5033278;28;20217;-88
2021/11/02 14:45:51;;;;;;;0.30;0.30;;;8.80;99.90;;;;;;5051004;28;20285;-85
2021/11/02 14:48:28;;;;;;;0.20;0.20;;;8.80;99.90;;;;;;5034032;28;20747;-86
2021/11/02 14:51:05;;;;;;;0.30;0.30;;;8.80;99.90;;;;;;5033080;28;20205;-86
2021/11/02 14:53:37;;;;;;;0.35;0.35;;;8.80;99.90;;;;;;5050062;28;20268;-86
2021/11/02 14:56:12;;;;;;;2.38;1.65;;;8.80;99.90;;;;;;5032987;28;20684;-85
2021/11/02 14:58:43;;;;;;;0.60;0.60;;;8.80;99.90;;;;;;5032160;28;20815;-87
2021/11/02 15:01:44;;;;;;;0.70;0.68;;;8.80;99.90;;;;;;5032686;28;20209;-86
2021/11/02 15:04:18;;;;;;;0.20;0.20;;;8.80;99.90;;;;;;5024392;28;20580;-87
2021/11/02 15:07:03;;;;;;;1.85;0.85;;;8.70;99.90;;;;;;5034370;28;20194;-87
2021/11/02 15:09:34;;;;;;;0.50;0.50;;;8.70;99.90;;;;;;5033058;28;20559;-87
2021/11/02 15:12:01;;;;;;;0.30;0.30;;;8.70;99.90;;;;;;5029784;28;20194;-87
2021/11/02 15:14:28;;;;;;;0.20;0.20;;;8.80;99.90;;;;;;5022302;28;20660;-86
2021/11/02 15:17:05;;;;;;;0.45;0.45;;;8.70;99.90;;;;;;5032936;28;20552;-87
2021/11/02 15:19:33;;;;;;;0.30;0.30;;;8.80;99.90;;;;;;5034017;28;20212;-87
2021/11/02 15:22:05;;;;;;;0.25;0.25;;;8.80;99.90;;;;;;5032900;28;20198;-88
2021/11/02 15:24:32;;;;;;;1.30;0.90;;;8.80;99.90;;;;;;5035273;28;20277;-90
2021/11/02 15:27:06;;;;;;;0.20;0.20;;;8.80;99.90;;;;;;5037310;28;20193;-90
2021/11/02 15:29:34;;;;;;;0.40;0.40;;;8.80;99.90;;;;;;5036998;28;20580;-91
2021/11/02 15:32:15;;;;;;;0.20;0.20;;;8.80;99.90;;;;;;5032671;28;20645;-91
2021/11/02 15:34:42;;;;;;;0.73;0.60;;;8.70;99.90;;;;;;5017430;28;20235;-91
2021/11/02 15:37:20;;;;;;;0.50;0.50;;;8.70;99.90;;;;;;5017574;28;20268;-93
2021/11/02 15:39:48;;;;;;;1.02;0.68;;;8.70;99.90;;;;;;5017360;28;20202;-91
2021/11/02 15:42:29;;;;;;;0.20;0.20;;;8.60;99.90;;;;;;5036559;28;20205;-93
2021/11/02 15:44:57;;;;;;;0.57;0.57;;;8.60;99.90;;;;;;5019527;28;20213;-91
2021/11/02 15:47:25;;;;;;;0.25;0.25;;;8.60;99.90;;;;;;5017296;28;20289;-92
2021/11/02 15:50:05;;;;;;;0.20;0.20;;;8.60;99.90;;;;;;5035007;28;20204;-93
2021/11/02 15:52:33;;;;;;;0.32;0.32;;;8.60;99.90;;;;;;5021349;28;20205;-95
2021/11/02 15:55:03;;;;;;;0.50;0.50;;;8.60;99.90;;;;;;5019619;28;20229;-92
2021/11/02 15:57:35;;;;;;;0.30;0.30;;;8.60;99.90;;;;;;5018389;28;20210;-92
2021/11/02 16:00:04;;;;;;;0.40;0.40;;;8.50;99.90;;;;;;5018239;28;20233;-91
2021/11/02 16:02:33;;;;;;;0.85;0.85;;;8.50;99.90;;;;;;5016784;28;20199;-92
2021/11/02 16:05:26;;;;;;;0.30;0.30;;;8.50;99.90;;;;;;5019558;28;20202;-92
2021/11/02 16:07:57;;;;;;;0.30;0.30;;;8.50;99.90;;;;;;5025479;28;20206;-91
2021/11/02 16:10:25;;;;;;;0.57;0.57;;;8.50;99.90;;;;;;5033865;28;20190;-91
2021/11/02 16:12:51;;;;;;;0.73;0.55;;;8.50;99.90;;;;;;5017846;28;20198;-92
2021/11/02 16:15:20;;;;;;;0.60;0.60;;;8.40;99.90;;;;;;5035483;28;20577;-92
2021/11/02 16:17:50;;;;;;;0.38;0.38;;;8.40;99.90;;;;;;5018074;28;20210;-92
2021/11/02 16:20:28;;;;;;;0.38;0.38;;;8.40;99.90;;;;;;5016407;28;20198;-91
2021/11/02 16:23:37;;;;;;;0.32;0.32;;;8.40;99.90;;;;;;5018869;28;20202;-93
2021/11/02 16:26:16;;;;;;;0.40;0.40;;;8.40;99.90;;;;;;4992535;28;20286;-92
2021/11/02 16:28:42;;;;;;;6.28;1.25;;;8.40;99.90;;;;;;5018170;28;20202;-93
2021/11/02 16:31:09;;;;;;;0.60;0.60;;;8.40;99.90;;;;;;5018390;28;20264;-92
2021/11/02 16:33:44;;;;;;;2.22;1.58;;;8.40;99.90;;;;;;5033177;28;20643;-92
2021/11/02 16:36:24;;;;;;;1.27;1.15;;;8.40;99.90;;;;;;5036522;28;20708;-91
2021/11/02 16:38:56;;;;;;;0.30;0.30;;;8.40;99.90;;;;;;5035691;28;20204;-91
2021/11/02 16:41:26;;;;;;;1.25;0.90;;;8.40;99.90;;;;;;5036541;28;20205;-90
2021/11/02 16:44:01;;;;;;;0.63;0.63;;;8.40;99.90;;;;;;5036338;28;20206;-91
2021/11/02 16:46:31;;;;;;;0.25;0.25;;;8.40;99.90;;;;;;5036255;28;20591;-91
2021/11/02 16:49:02;;;;;;;0.50;0.50;;;8.40;99.90;;;;;;5036744;28;20250;-91
2021/11/02 16:52:00;;;;;;;4.05;2.28;;;8.40;99.90;;;;;;5036340;28;20296;-91
2021/11/02 16:54:29;;;;;;;2.35;1.52;;;8.40;99.90;;;;;;4995607;28;20218;-90
2021/11/02 16:57:11;;;;;;;1.27;1.15;;;8.40;99.90;;;;;;5037750;28;20294;-91
2021/11/02 16:59:39;;;;;;;0.82;0.75;;;8.40;99.90;;;;;;5036754;28;20209;-91
2021/11/02 17:02:27;;;;;;;0.70;0.70;;;8.30;99.90;;;;;;5036338;28;20201;-90
2021/11/02 17:05:07;;;;;;;0.95;0.95;;;8.30;99.90;;;;;;5035187;28;20197;-92
2021/11/02 17:07:50;;;;;;;0.40;0.40;;;8.30;99.90;;;;;;5036469;28;20304;-89
2021/11/02 17:10:28;;;;;;;0.60;0.55;;;8.30;99.90;;;;;;5019252;28;20207;-89
2021/11/02 17:12:54;;;;;;;0.95;0.85;;;8.30;99.90;;;;;;5034107;28;20211;-90
2021/11/02 17:15:28;;;;;;;1.30;1.20;;;8.30;99.90;;;;;;5036301;28;20201;-89
2021/11/02 17:17:56;;;;;;;0.50;0.50;;;8.30;99.90;;;;;;5035271;28;20232;-90
2021/11/02 17:20:22;;;;;;;2.15;1.75;;;8.30;99.90;;;;;;5034922;28;20636;-90
2021/11/02 17:22:52;;;;;;;1.48;1.13;;;8.30;99.90;;;;;;5035624;28;20199;-91
2021/11/02 17:25:19;;;;;;;1.13;1.02;;;8.20;99.90;;;;;;5052931;28;20194;-91
2021/11/02 17:27:50;;;;;;;39.20;1.75;;;8.20;99.90;;;;;;5053113;28;20204;-92
2021/11/02 17:30:22;;;;;;;1.33;0.95;;;8.20;99.90;;;;;;5036190;28;20209;-91
2021/11/02 17:32:48;;;;;;;0.50;0.50;;;8.20;99.90;;;;;;5035499;28;20225;-91
2021/11/02 17:35:16;;;;;;;0.50;0.50;;;8.20;99.90;;;;;;5031506;28;20209;-92
2021/11/02 17:37:48;;;;;;;0.30;0.30;;;8.20;99.90;;;;;;5030354;28;20635;-91
2021/11/02 17:40:16;;;;;;;0.82;0.82;;;8.20;99.90;;;;;;5030731;28;20617;-92
2021/11/02 17:42:44;;;;;;;3.95;0.93;;;8.20;99.90;;;;;;5032372;28;20205;-91
2021/11/02 17:45:12;;;;;;;0.93;0.52;;;8.20;99.90;;;;;;5031035;28;20236;-91
2021/11/02 17:47:41;;;;;;;1.40;0.65;;;8.20;99.90;;;;;;5029923;28;20206;-92
2021/11/02 17:50:07;;;;;;;0.40;0.40;;;8.20;99.90;;;;;;5031588;28;20687;-91
2021/11/02 17:52:33;;;;;;;1.00;0.80;;;8.20;99.90;;;;;;5031154;28;20216;-91
2021/11/02 17:54:59;;;;;;;1.83;1.25;;;8.20;99.90;;;;;;5030202;28;20205;-93
2021/11/02 17:57:25;;;;;;;1.20;0.70;;;8.20;99.90;;;;;;5030124;28;20209;-93
2021/11/02 17:59:51;;;;;;;0.32;0.32;;;8.20;99.90;;;;;;5023384;28;20212;-90
2021/11/02 18:02:18;;;;;;;1.00;0.80;;;8.20;99.90;;;;;;5047444;28;20276;-87
2021/11/02 18:04:48;;;;;;;0.75;0.75;;;8.20;99.90;;;;;;5043670;28;20220;-87
2021/11/02 18:07:14;;;;;;;0.90;0.73;;;8.20;99.90;;;;;;5032440;28;20541;-91
2021/11/02 18:09:39;;;;;;;3.10;1.45;;;8.20;99.90;;;;;;5030523;28;20735;-92
2021/11/02 18:12:06;;;;;;;0.47;0.47;;;8.10;99.90;;;;;;5030745;28;20205;-90
2021/11/02 18:14:32;;;;;;;0.40;0.40;;;8.10;99.90;;;;;;5049387;28;20693;-89
2021/11/02 18:16:59;;;;;;;8.07;1.45;;;8.10;99.90;;;;;;5030430;28;20209;-88
2021/11/02 18:19:27;;;;;;;0.40;0.40;;;8.10;99.90;;;;;;4998677;28;20226;-88
2021/11/02 18:21:54;;;;;;;1.58;1.42;;;8.10;99.90;;;;;;5019911;28;20194;-91
2021/11/02 18:24:20;;;;;;;0.45;0.45;;;8.10;99.90;;;;;;5013532;28;20245;-89